sensor_id;sensor_type;location;lat;lon;timestamp;temperature;humidity
24162;DHT22;12318;51.262;7.066;2022-07-29T00:01:46;18.30;99.90
24162;DHT22;12318;51.262;7.066;2022-07-29T00:04:14;18.20;99.90
24162;DHT22;12318;51.262;7.066;2022-07-29T00:06:40;18.20;99.90
24162;DHT22;12318;51.262;7.066;2022-07-29T00:09:06;18.20;99.90
24162;DHT22;12318;51.262;7.066;2022-07-29T00:11:32;18.10;99.90
24162;DHT22;12318;51.262;7.066;2022-07-29T00:13:58;18.10;99.90
24162;DHT22;12318;51.262;7.066;2022-07-29T00:16:24;18.10;99.90
24162;DHT22;12318;51.262;7.066;2022-07-29T00:18:49;18.10;99.90
24162;DHT22;12318;51.262;7.066;2022-07-29T00:21:15;18.00;99.90
24162;DHT22;12318;51.262;7.066;2022-07-29T00:23:48;18.00;99.90
24162;DHT22;12318;51.262;7.066;2022-07-29T00:26:14;18.00;99.90
24162;DHT22;12318;51.262;7.066;2022-07-29T00:28:40;17.90;99.90
24162;DHT22;12318;51.262;7.066;2022-07-29T00:31:05;17.80;99.90
24162;DHT22;12318;51.262;7.066;2022-07-29T00:33:31;17.90;99.90
24162;DHT22;12318;51.262;7.066;2022-07-29T00:35:57;17.80;99.90
24162;DHT22;12318;51.262;7.066;2022-07-29T00:38:22;17.90;99.90
24162;DHT22;12318;51.262;7.066;2022-07-29T00:40:48;17.90;99.90
24162;DHT22;12318;51.262;7.066;2022-07-29T00:43:23;17.90;99.90
24162;DHT22;12318;51.262;7.066;2022-07-29T00:45:48;17.90;99.90
24162;DHT22;12318;51.262;7.066;2022-07-29T00:48:14;18.00;99.90
24162;DHT22;12318;51.262;7.066;2022-07-29T00:50:40;18.00;99.90
24162;DHT22;12318;51.262;7.066;2022-07-29T00:53:28;17.90;99.90
24162;DHT22;12318;51.262;7.066;2022-07-29T00:55:54;17.90;99.90
24162;DHT22;12318;51.262;7.066;2022-07-29T00:58:21;17.80;99.90
24162;DHT22;12318;51.262;7.066;2022-07-29T01:00:47;17.70;99.90
24162;DHT22;12318;51.262;7.066;2022-07-29T01:03:31;17.80;99.90
24162;DHT22;12318;51.262;7.066;2022-07-29T01:05:57;17.90;99.90
24162;DHT22;12318;51.262;7.066;2022-07-29T01:08:24;17.90;99.90
24162;DHT22;12318;51.262;7.066;2022-07-29T01:10:51;17.80;99.90
24162;DHT22;12318;51.262;7.066;2022-07-29T01:13:23;17.60;99.90
24162;DHT22;12318;51.262;7.066;2022-07-29T01:15:56;17.40;99.90
24162;DHT22;12318;51.262;7.066;2022-07-29T01:18:30;17.50;99.90
24162;DHT22;12318;51.262;7.066;2022-07-29T01:29:11;17.40;99.90
24162;DHT22;12318;51.262;7.066;2022-07-29T01:32:26;17.40;99.90
24162;DHT22;12318;51.262;7.066;2022-07-29T01:35:05;17.40;99.90
24162;DHT22;12318;51.262;7.066;2022-07-29T01:37:36;17.40;99.90
24162;DHT22;12318;51.262;7.066;2022-07-29T01:40:05;17.30;99.90
24162;DHT22;12318;51.262;7.066;2022-07-29T01:42:50;17.30;99.90
24162;DHT22;12318;51.262;7.066;2022-07-29T01:45:40;17.40;99.90
24162;DHT22;12318;51.262;7.066;2022-07-29T01:48:16;17.50;99.90
24162;DHT22;12318;51.262;7.066;2022-07-29T01:50:58;17.50;99.90
24162;DHT22;12318;51.262;7.066;2022-07-29T01:53:39;17.50;99.90
24162;DHT22;12318;51.262;7.066;2022-07-29T01:56:09;17.40;99.90
24162;DHT22;12318;51.262;7.066;2022-07-29T01:58:38;17.10;99.90
24162;DHT22;12318;51.262;7.066;2022-07-29T02:01:08;17.00;99.90
24162;DHT22;12318;51.262;7.066;2022-07-29T02:03:56;17.10;99.90
24162;DHT22;12318;51.262;7.066;2022-07-29T02:06:23;17.10;99.90
24162;DHT22;12318;51.262;7.066;2022-07-29T02:08:51;17.00;99.90
24162;DHT22;12318;51.262;7.066;2022-07-29T02:11:18;17.10;99.90
24162;DHT22;12318;51.262;7.066;2022-07-29T02:13:44;17.20;99.90
24162;DHT22;12318;51.262;7.066;2022-07-29T02:16:10;17.20;99.90
24162;DHT22;12318;51.262;7.066;2022-07-29T02:18:39;17.00;99.90
24162;DHT22;12318;51.262;7.066;2022-07-29T02:21:07;16.90;99.90
24162;DHT22;12318;51.262;7.066;2022-07-29T02:23:38;16.90;99.90
24162;DHT22;12318;51.262;7.066;2022-07-29T02:26:04;17.10;99.90
24162;DHT22;12318;51.262;7.066;2022-07-29T02:28:33;17.00;99.90
24162;DHT22;12318;51.262;7.066;2022-07-29T02:31:01;17.10;99.90
24162;DHT22;12318;51.262;7.066;2022-07-29T02:33:30;17.10;99.90
24162;DHT22;12318;51.262;7.066;2022-07-29T02:35:57;17.10;99.90
24162;DHT22;12318;51.262;7.066;2022-07-29T02:38:23;17.10;99.90
24162;DHT22;12318;51.262;7.066;2022-07-29T02:41:13;17.10;99.90
24162;DHT22;12318;51.262;7.066;2022-07-29T02:43:52;17.20;99.90
24162;DHT22;12318;51.262;7.066;2022-07-29T02:46:31;17.30;99.90
24162;DHT22;12318;51.262;7.066;2022-07-29T02:49:15;17.10;99.90
24162;DHT22;12318;51.262;7.066;2022-07-29T02:51:45;17.10;99.90
24162;DHT22;12318;51.262;7.066;2022-07-29T02:54:34;17.10;99.90
24162;DHT22;12318;51.262;7.066;2022-07-29T02:57:09;17.00;99.90
24162;DHT22;12318;51.262;7.066;2022-07-29T02:59:37;17.00;99.90
24162;DHT22;12318;51.262;7.066;2022-07-29T03:02:07;17.00;99.90
24162;DHT22;12318;51.262;7.066;2022-07-29T03:04:41;17.20;99.90
24162;DHT22;12318;51.262;7.066;2022-07-29T03:07:08;17.20;99.90
24162;DHT22;12318;51.262;7.066;2022-07-29T03:09:34;17.20;99.90
24162;DHT22;12318;51.262;7.066;2022-07-29T03:12:01;17.30;99.90
24162;DHT22;12318;51.262;7.066;2022-07-29T03:14:28;17.30;99.90
24162;DHT22;12318;51.262;7.066;2022-07-29T03:16:53;17.00;99.90
24162;DHT22;12318;51.262;7.066;2022-07-29T03:19:20;16.90;99.90
24162;DHT22;12318;51.262;7.066;2022-07-29T03:21:45;16.90;99.90
24162;DHT22;12318;51.262;7.066;2022-07-29T03:24:25;16.80;99.90
24162;DHT22;12318;51.262;7.066;2022-07-29T03:26:51;16.80;99.90
24162;DHT22;12318;51.262;7.066;2022-07-29T03:29:16;16.90;99.90
24162;DHT22;12318;51.262;7.066;2022-07-29T03:31:42;16.90;99.90
24162;DHT22;12318;51.262;7.066;2022-07-29T03:34:15;17.00;99.90
24162;DHT22;12318;51.262;7.066;2022-07-29T03:36:41;17.00;99.90
24162;DHT22;12318;51.262;7.066;2022-07-29T03:39:07;17.10;99.90
24162;DHT22;12318;51.262;7.066;2022-07-29T03:41:36;17.10;99.90
24162;DHT22;12318;51.262;7.066;2022-07-29T03:44:05;17.00;99.90
24162;DHT22;12318;51.262;7.066;2022-07-29T03:46:34;17.10;99.90
24162;DHT22;12318;51.262;7.066;2022-07-29T03:49:01;17.10;99.90
24162;DHT22;12318;51.262;7.066;2022-07-29T03:51:28;17.10;99.90
24162;DHT22;12318;51.262;7.066;2022-07-29T03:53:54;17.00;99.90
24162;DHT22;12318;51.262;7.066;2022-07-29T03:56:23;17.10;99.90
24162;DHT22;12318;51.262;7.066;2022-07-29T03:58:51;17.00;99.90
24162;DHT22;12318;51.262;7.066;2022-07-29T04:01:19;17.00;99.90
24162;DHT22;12318;51.262;7.066;2022-07-29T04:03:45;16.90;99.90
24162;DHT22;12318;51.262;7.066;2022-07-29T04:06:11;16.90;99.90
24162;DHT22;12318;51.262;7.066;2022-07-29T04:08:37;17.00;99.90
24162;DHT22;12318;51.262;7.066;2022-07-29T04:11:04;16.80;99.90
24162;DHT22;12318;51.262;7.066;2022-07-29T04:13:49;16.80;99.90
24162;DHT22;12318;51.262;7.066;2022-07-29T04:16:14;16.70;99.90
24162;DHT22;12318;51.262;7.066;2022-07-29T04:18:40;16.70;99.90
24162;DHT22;12318;51.262;7.066;2022-07-29T04:21:06;16.80;99.90
24162;DHT22;12318;51.262;7.066;2022-07-29T04:23:47;16.70;99.90
24162;DHT22;12318;51.262;7.066;2022-07-29T04:26:18;16.60;99.90
24162;DHT22;12318;51.262;7.066;2022-07-29T04:28:45;16.60;99.90
24162;DHT22;12318;51.262;7.066;2022-07-29T04:31:12;16.70;99.90
24162;DHT22;12318;51.262;7.066;2022-07-29T04:33:56;16.80;99.90
24162;DHT22;12318;51.262;7.066;2022-07-29T04:36:22;16.60;99.90
24162;DHT22;12318;51.262;7.066;2022-07-29T04:38:47;16.60;99.90
24162;DHT22;12318;51.262;7.066;2022-07-29T04:41:13;16.60;99.90
24162;DHT22;12318;51.262;7.066;2022-07-29T04:43:39;16.50;99.90
24162;DHT22;12318;51.262;7.066;2022-07-29T04:46:06;16.50;99.90
24162;DHT22;12318;51.262;7.066;2022-07-29T04:48:32;16.60;99.90
24162;DHT22;12318;51.262;7.066;2022-07-29T04:50:59;16.70;99.90
24162;DHT22;12318;51.262;7.066;2022-07-29T04:53:26;16.70;99.90
24162;DHT22;12318;51.262;7.066;2022-07-29T04:55:52;16.70;99.90
24162;DHT22;12318;51.262;7.066;2022-07-29T04:58:18;16.60;99.90
24162;DHT22;12318;51.262;7.066;2022-07-29T05:00:43;16.50;99.90
24162;DHT22;12318;51.262;7.066;2022-07-29T05:03:14;16.60;99.90
24162;DHT22;12318;51.262;7.066;2022-07-29T05:05:39;16.60;99.90
24162;DHT22;12318;51.262;7.066;2022-07-29T05:08:06;16.60;99.90
24162;DHT22;12318;51.262;7.066;2022-07-29T05:10:32;16.60;99.90
24162;DHT22;12318;51.262;7.066;2022-07-29T05:13:05;16.50;99.90
24162;DHT22;12318;51.262;7.066;2022-07-29T05:15:32;16.50;99.90
24162;DHT22;12318;51.262;7.066;2022-07-29T05:17:58;16.50;99.90
24162;DHT22;12318;51.262;7.066;2022-07-29T05:20:24;16.50;99.90
24162;DHT22;12318;51.262;7.066;2022-07-29T05:22:53;16.40;99.90
24162;DHT22;12318;51.262;7.066;2022-07-29T05:25:18;16.30;99.90
24162;DHT22;12318;51.262;7.066;2022-07-29T05:27:44;16.30;99.90
24162;DHT22;12318;51.262;7.066;2022-07-29T05:30:10;16.30;99.90
24162;DHT22;12318;51.262;7.066;2022-07-29T05:32:46;16.30;99.90
24162;DHT22;12318;51.262;7.066;2022-07-29T05:35:13;16.30;99.90
24162;DHT22;12318;51.262;7.066;2022-07-29T05:37:39;16.30;99.90
24162;DHT22;12318;51.262;7.066;2022-07-29T05:40:05;16.50;99.90
24162;DHT22;12318;51.262;7.066;2022-07-29T05:43:07;16.50;99.90
24162;DHT22;12318;51.262;7.066;2022-07-29T05:45:33;16.40;99.90
24162;DHT22;12318;51.262;7.066;2022-07-29T05:47:59;16.50;99.90
24162;DHT22;12318;51.262;7.066;2022-07-29T05:50:24;16.50;99.90
24162;DHT22;12318;51.262;7.066;2022-07-29T05:52:56;16.50;99.90
24162;DHT22;12318;51.262;7.066;2022-07-29T05:55:22;16.50;99.90
24162;DHT22;12318;51.262;7.066;2022-07-29T05:57:48;16.60;99.90
24162;DHT22;12318;51.262;7.066;2022-07-29T06:00:14;16.60;99.90
24162;DHT22;12318;51.262;7.066;2022-07-29T06:02:40;16.60;99.90
24162;DHT22;12318;51.262;7.066;2022-07-29T06:05:06;16.70;99.90
24162;DHT22;12318;51.262;7.066;2022-07-29T06:07:32;16.50;99.90
24162;DHT22;12318;51.262;7.066;2022-07-29T06:09:58;16.60;99.90
24162;DHT22;12318;51.262;7.066;2022-07-29T06:12:40;16.70;99.90
24162;DHT22;12318;51.262;7.066;2022-07-29T06:15:09;16.80;99.90
24162;DHT22;12318;51.262;7.066;2022-07-29T06:17:35;16.70;99.90
24162;DHT22;12318;51.262;7.066;2022-07-29T06:20:01;16.70;99.90
24162;DHT22;12318;51.262;7.066;2022-07-29T06:22:34;16.80;99.90
24162;DHT22;12318;51.262;7.066;2022-07-29T06:25:01;17.00;99.90
24162;DHT22;12318;51.262;7.066;2022-07-29T06:27:27;17.00;99.90
24162;DHT22;12318;51.262;7.066;2022-07-29T06:29:53;17.20;99.90
24162;DHT22;12318;51.262;7.066;2022-07-29T06:32:28;17.30;99.90
24162;DHT22;12318;51.262;7.066;2022-07-29T06:34:56;17.30;99.90
24162;DHT22;12318;51.262;7.066;2022-07-29T06:37:22;17.40;99.90
24162;DHT22;12318;51.262;7.066;2022-07-29T06:39:47;17.60;99.90
24162;DHT22;12318;51.262;7.066;2022-07-29T06:42:30;17.80;99.90
24162;DHT22;12318;51.262;7.066;2022-07-29T06:44:57;18.10;99.90
24162;DHT22;12318;51.262;7.066;2022-07-29T06:47:22;18.20;99.90
24162;DHT22;12318;51.262;7.066;2022-07-29T06:49:48;18.30;99.90
24162;DHT22;12318;51.262;7.066;2022-07-29T06:52:23;18.40;99.90
24162;DHT22;12318;51.262;7.066;2022-07-29T06:54:50;18.70;99.90
24162;DHT22;12318;51.262;7.066;2022-07-29T06:57:16;18.60;99.90
24162;DHT22;12318;51.262;7.066;2022-07-29T06:59:42;18.60;99.90
24162;DHT22;12318;51.262;7.066;2022-07-29T07:02:07;18.80;99.90
24162;DHT22;12318;51.262;7.066;2022-07-29T07:04:33;18.70;99.90
24162;DHT22;12318;51.262;7.066;2022-07-29T07:06:59;18.70;99.90
24162;DHT22;12318;51.262;7.066;2022-07-29T07:09:25;19.00;99.90
24162;DHT22;12318;51.262;7.066;2022-07-29T07:11:50;19.20;99.90
24162;DHT22;12318;51.262;7.066;2022-07-29T07:14:16;19.10;99.90
24162;DHT22;12318;51.262;7.066;2022-07-29T07:16:42;19.20;99.90
24162;DHT22;12318;51.262;7.066;2022-07-29T07:19:08;19.30;99.90
24162;DHT22;12318;51.262;7.066;2022-07-29T07:21:33;19.30;99.90
24162;DHT22;12318;51.262;7.066;2022-07-29T07:24:08;19.00;99.90
24162;DHT22;12318;51.262;7.066;2022-07-29T07:26:34;19.00;99.90
24162;DHT22;12318;51.262;7.066;2022-07-29T07:29:00;18.90;99.90
24162;DHT22;12318;51.262;7.066;2022-07-29T07:31:25;18.80;99.90
24162;DHT22;12318;51.262;7.066;2022-07-29T07:33:57;18.80;99.90
24162;DHT22;12318;51.262;7.066;2022-07-29T07:36:23;18.80;99.90
24162;DHT22;12318;51.262;7.066;2022-07-29T07:38:49;18.70;99.90
24162;DHT22;12318;51.262;7.066;2022-07-29T07:41:15;18.70;99.90
24162;DHT22;12318;51.262;7.066;2022-07-29T07:43:41;18.90;99.90
24162;DHT22;12318;51.262;7.066;2022-07-29T07:46:07;19.00;99.90
24162;DHT22;12318;51.262;7.066;2022-07-29T07:48:32;19.00;99.90
24162;DHT22;12318;51.262;7.066;2022-07-29T07:51:00;18.60;99.90
24162;DHT22;12318;51.262;7.066;2022-07-29T07:53:26;18.60;99.90
24162;DHT22;12318;51.262;7.066;2022-07-29T07:55:52;18.60;99.90
24162;DHT22;12318;51.262;7.066;2022-07-29T07:58:18;18.60;99.90
24162;DHT22;12318;51.262;7.066;2022-07-29T08:00:43;18.80;99.90
24162;DHT22;12318;51.262;7.066;2022-07-29T08:03:09;18.80;99.90
24162;DHT22;12318;51.262;7.066;2022-07-29T08:05:38;18.50;99.90
24162;DHT22;12318;51.262;7.066;2022-07-29T08:08:04;18.70;99.90
24162;DHT22;12318;51.262;7.066;2022-07-29T08:10:30;18.80;99.90
24162;DHT22;12318;51.262;7.066;2022-07-29T08:13:18;18.40;99.90
24162;DHT22;12318;51.262;7.066;2022-07-29T08:15:44;18.40;99.90
24162;DHT22;12318;51.262;7.066;2022-07-29T08:18:11;18.30;99.90
24162;DHT22;12318;51.262;7.066;2022-07-29T08:20:39;18.40;99.90
24162;DHT22;12318;51.262;7.066;2022-07-29T08:23:07;18.40;99.90
24162;DHT22;12318;51.262;7.066;2022-07-29T08:25:35;18.40;99.90
24162;DHT22;12318;51.262;7.066;2022-07-29T08:28:01;18.40;99.90
24162;DHT22;12318;51.262;7.066;2022-07-29T08:30:27;18.40;99.90
24162;DHT22;12318;51.262;7.066;2022-07-29T08:32:53;18.30;99.90
24162;DHT22;12318;51.262;7.066;2022-07-29T08:35:20;18.30;99.90
24162;DHT22;12318;51.262;7.066;2022-07-29T08:37:47;18.30;99.90
24162;DHT22;12318;51.262;7.066;2022-07-29T08:40:13;18.30;99.90
24162;DHT22;12318;51.262;7.066;2022-07-29T08:42:40;17.90;99.90
24162;DHT22;12318;51.262;7.066;2022-07-29T08:45:09;17.60;99.90
24162;DHT22;12318;51.262;7.066;2022-07-29T08:47:35;17.70;99.90
24162;DHT22;12318;51.262;7.066;2022-07-29T08:50:06;17.80;99.90
24162;DHT22;12318;51.262;7.066;2022-07-29T08:52:36;18.00;99.90
24162;DHT22;12318;51.262;7.066;2022-07-29T08:55:02;18.30;99.90
24162;DHT22;12318;51.262;7.066;2022-07-29T08:57:28;18.40;99.90
24162;DHT22;12318;51.262;7.066;2022-07-29T08:59:54;18.50;99.90
24162;DHT22;12318;51.262;7.066;2022-07-29T09:02:21;18.00;99.90
24162;DHT22;12318;51.262;7.066;2022-07-29T09:04:48;17.80;99.90
24162;DHT22;12318;51.262;7.066;2022-07-29T09:07:18;17.60;99.90
24162;DHT22;12318;51.262;7.066;2022-07-29T09:09:44;17.60;99.90
24162;DHT22;12318;51.262;7.066;2022-07-29T09:12:10;17.60;99.90
24162;DHT22;12318;51.262;7.066;2022-07-29T09:14:40;17.40;99.90
24162;DHT22;12318;51.262;7.066;2022-07-29T09:17:07;17.50;99.90
24162;DHT22;12318;51.262;7.066;2022-07-29T09:19:34;17.50;99.90
24162;DHT22;12318;51.262;7.066;2022-07-29T09:22:02;17.60;99.90
24162;DHT22;12318;51.262;7.066;2022-07-29T09:24:44;17.70;99.90
24162;DHT22;12318;51.262;7.066;2022-07-29T09:27:18;17.80;99.90
24162;DHT22;12318;51.262;7.066;2022-07-29T09:29:45;17.70;99.90
24162;DHT22;12318;51.262;7.066;2022-07-29T09:32:24;17.40;99.90
24162;DHT22;12318;51.262;7.066;2022-07-29T09:34:50;17.30;99.90
24162;DHT22;12318;51.262;7.066;2022-07-29T09:37:28;17.30;99.90
24162;DHT22;12318;51.262;7.066;2022-07-29T09:39:54;17.30;99.90
24162;DHT22;12318;51.262;7.066;2022-07-29T09:42:30;17.40;99.90
24162;DHT22;12318;51.262;7.066;2022-07-29T09:44:59;17.40;99.90
24162;DHT22;12318;51.262;7.066;2022-07-29T09:47:46;17.50;99.90
24162;DHT22;12318;51.262;7.066;2022-07-29T09:50:16;17.50;99.90
24162;DHT22;12318;51.262;7.066;2022-07-29T09:52:49;17.60;99.90
24162;DHT22;12318;51.262;7.066;2022-07-29T09:55:16;17.50;99.90
24162;DHT22;12318;51.262;7.066;2022-07-29T09:57:43;17.70;99.90
24162;DHT22;12318;51.262;7.066;2022-07-29T10:00:12;17.60;99.90
24162;DHT22;12318;51.262;7.066;2022-07-29T10:02:44;17.70;99.90
24162;DHT22;12318;51.262;7.066;2022-07-29T10:05:22;17.80;99.90
24162;DHT22;12318;51.262;7.066;2022-07-29T10:07:53;17.90;99.90
24162;DHT22;12318;51.262;7.066;2022-07-29T10:10:30;17.90;99.90
24162;DHT22;12318;51.262;7.066;2022-07-29T10:12:59;17.70;99.90
24162;DHT22;12318;51.262;7.066;2022-07-29T10:15:27;17.70;99.90
24162;DHT22;12318;51.262;7.066;2022-07-29T10:17:54;17.70;99.90
24162;DHT22;12318;51.262;7.066;2022-07-29T10:20:21;17.80;99.90
24162;DHT22;12318;51.262;7.066;2022-07-29T10:23:00;17.80;99.90
24162;DHT22;12318;51.262;7.066;2022-07-29T10:25:26;17.60;99.90
24162;DHT22;12318;51.262;7.066;2022-07-29T10:27:53;17.60;99.90
24162;DHT22;12318;51.262;7.066;2022-07-29T10:30:21;17.50;99.90
24162;DHT22;12318;51.262;7.066;2022-07-29T10:47:08;18.10;99.90
24162;DHT22;12318;51.262;7.066;2022-07-29T10:49:34;18.20;99.90
24162;DHT22;12318;51.262;7.066;2022-07-29T10:52:10;18.20;99.90
24162;DHT22;12318;51.262;7.066;2022-07-29T10:54:41;18.20;99.90
24162;DHT22;12318;51.262;7.066;2022-07-29T10:59:49;18.30;99.90
24162;DHT22;12318;51.262;7.066;2022-07-29T11:02:53;18.40;99.90
24162;DHT22;12318;51.262;7.066;2022-07-29T11:05:21;18.60;99.90
24162;DHT22;12318;51.262;7.066;2022-07-29T11:10:39;19.10;99.90
24162;DHT22;12318;51.262;7.066;2022-07-29T11:16:09;19.30;99.90
24162;DHT22;12318;51.262;7.066;2022-07-29T11:18:34;19.40;99.90
24162;DHT22;12318;51.262;7.066;2022-07-29T11:21:00;19.50;99.90
24162;DHT22;12318;51.262;7.066;2022-07-29T11:23:26;19.80;99.90
24162;DHT22;12318;51.262;7.066;2022-07-29T11:31:31;20.00;99.90
24162;DHT22;12318;51.262;7.066;2022-07-29T11:34:31;19.90;99.90
24162;DHT22;12318;51.262;7.066;2022-07-29T11:39:41;20.10;99.90
24162;DHT22;12318;51.262;7.066;2022-07-29T11:45:23;20.60;99.90
24162;DHT22;12318;51.262;7.066;2022-07-29T11:47:55;20.80;99.90
24162;DHT22;12318;51.262;7.066;2022-07-29T11:50:41;20.80;99.90
24162;DHT22;12318;51.262;7.066;2022-07-29T11:53:12;21.10;99.90
24162;DHT22;12318;51.262;7.066;2022-07-29T11:55:41;21.30;99.90
24162;DHT22;12318;51.262;7.066;2022-07-29T11:58:07;21.50;99.90
24162;DHT22;12318;51.262;7.066;2022-07-29T12:00:40;21.60;99.90
24162;DHT22;12318;51.262;7.066;2022-07-29T12:03:42;21.50;99.90
24162;DHT22;12318;51.262;7.066;2022-07-29T12:06:14;21.70;99.90
24162;DHT22;12318;51.262;7.066;2022-07-29T12:08:41;21.80;99.90
24162;DHT22;12318;51.262;7.066;2022-07-29T12:11:19;22.00;99.90
24162;DHT22;12318;51.262;7.066;2022-07-29T12:13:47;22.20;99.90
24162;DHT22;12318;51.262;7.066;2022-07-29T12:16:13;22.20;99.90
24162;DHT22;12318;51.262;7.066;2022-07-29T12:18:38;22.40;99.90
24162;DHT22;12318;51.262;7.066;2022-07-29T12:21:04;22.30;99.90
24162;DHT22;12318;51.262;7.066;2022-07-29T12:23:33;22.40;99.80
24162;DHT22;12318;51.262;7.066;2022-07-29T12:25:59;22.60;99.00
24162;DHT22;12318;51.262;7.066;2022-07-29T12:28:25;22.90;99.50
24162;DHT22;12318;51.262;7.066;2022-07-29T12:30:51;23.10;99.80
24162;DHT22;12318;51.262;7.066;2022-07-29T12:33:26;23.20;99.90
24162;DHT22;12318;51.262;7.066;2022-07-29T12:36:00;23.20;98.30
24162;DHT22;12318;51.262;7.066;2022-07-29T12:38:27;23.10;98.00
24162;DHT22;12318;51.262;7.066;2022-07-29T12:40:54;23.20;99.50
24162;DHT22;12318;51.262;7.066;2022-07-29T12:43:22;23.10;98.50
24162;DHT22;12318;51.262;7.066;2022-07-29T12:45:50;23.10;98.30
24162;DHT22;12318;51.262;7.066;2022-07-29T12:48:17;23.10;98.40
24162;DHT22;12318;51.262;7.066;2022-07-29T12:51:00;23.20;98.70
24162;DHT22;12318;51.262;7.066;2022-07-29T12:53:27;23.60;98.90
24162;DHT22;12318;51.262;7.066;2022-07-29T12:55:54;23.80;98.70
24162;DHT22;12318;51.262;7.066;2022-07-29T12:58:41;23.50;99.10
24162;DHT22;12318;51.262;7.066;2022-07-29T13:01:15;23.30;99.40
24162;DHT22;12318;51.262;7.066;2022-07-29T13:11:42;22.90;98.10
24162;DHT22;12318;51.262;7.066;2022-07-29T13:14:10;22.80;99.10
24162;DHT22;12318;51.262;7.066;2022-07-29T13:16:37;23.00;99.60
24162;DHT22;12318;51.262;7.066;2022-07-29T13:19:42;23.20;99.90
24162;DHT22;12318;51.262;7.066;2022-07-29T13:22:10;23.00;99.90
24162;DHT22;12318;51.262;7.066;2022-07-29T13:25:05;22.90;99.90
24162;DHT22;12318;51.262;7.066;2022-07-29T13:27:36;22.90;99.90
24162;DHT22;12318;51.262;7.066;2022-07-29T13:30:13;23.00;99.90
24162;DHT22;12318;51.262;7.066;2022-07-29T13:32:39;23.10;99.90
24162;DHT22;12318;51.262;7.066;2022-07-29T13:35:06;23.20;99.90
24162;DHT22;12318;51.262;7.066;2022-07-29T13:37:33;23.20;99.90
24162;DHT22;12318;51.262;7.066;2022-07-29T13:40:03;23.20;99.90
24162;DHT22;12318;51.262;7.066;2022-07-29T13:42:31;23.10;99.40
24162;DHT22;12318;51.262;7.066;2022-07-29T13:44:57;23.30;99.80
24162;DHT22;12318;51.262;7.066;2022-07-29T13:47:23;23.40;99.90
24162;DHT22;12318;51.262;7.066;2022-07-29T13:49:49;23.30;99.80
24162;DHT22;12318;51.262;7.066;2022-07-29T13:52:15;23.10;99.90
24162;DHT22;12318;51.262;7.066;2022-07-29T13:54:41;23.00;99.90
24162;DHT22;12318;51.262;7.066;2022-07-29T13:57:07;23.00;99.90
24162;DHT22;12318;51.262;7.066;2022-07-29T13:59:33;23.00;99.90
24162;DHT22;12318;51.262;7.066;2022-07-29T14:01:59;23.00;99.90
24162;DHT22;12318;51.262;7.066;2022-07-29T14:04:25;23.10;99.40
24162;DHT22;12318;51.262;7.066;2022-07-29T14:06:51;23.10;99.00
24162;DHT22;12318;51.262;7.066;2022-07-29T14:09:16;22.90;99.90
24162;DHT22;12318;51.262;7.066;2022-07-29T14:11:42;23.00;99.90
24162;DHT22;12318;51.262;7.066;2022-07-29T14:14:10;23.20;99.90
24162;DHT22;12318;51.262;7.066;2022-07-29T14:16:36;23.40;99.90
24162;DHT22;12318;51.262;7.066;2022-07-29T14:19:01;23.40;99.30
24162;DHT22;12318;51.262;7.066;2022-07-29T14:21:27;23.30;99.30
24162;DHT22;12318;51.262;7.066;2022-07-29T14:23:55;23.10;99.60
24162;DHT22;12318;51.262;7.066;2022-07-29T14:26:21;23.10;99.80
24162;DHT22;12318;51.262;7.066;2022-07-29T14:28:48;23.10;99.90
24162;DHT22;12318;51.262;7.066;2022-07-29T14:31:36;23.20;99.90
24162;DHT22;12318;51.262;7.066;2022-07-29T14:34:02;23.30;99.90
24162;DHT22;12318;51.262;7.066;2022-07-29T14:36:27;23.40;99.90
24162;DHT22;12318;51.262;7.066;2022-07-29T14:38:53;23.50;99.90
24162;DHT22;12318;51.262;7.066;2022-07-29T14:41:19;23.30;98.40
24162;DHT22;12318;51.262;7.066;2022-07-29T14:43:56;23.10;99.10
24162;DHT22;12318;51.262;7.066;2022-07-29T14:46:23;23.10;98.50
24162;DHT22;12318;51.262;7.066;2022-07-29T14:48:48;23.30;98.00
24162;DHT22;12318;51.262;7.066;2022-07-29T14:51:14;23.30;98.00
24162;DHT22;12318;51.262;7.066;2022-07-29T14:53:39;23.20;96.80
24162;DHT22;12318;51.262;7.066;2022-07-29T14:56:05;23.10;97.80
24162;DHT22;12318;51.262;7.066;2022-07-29T14:58:31;23.30;98.50
24162;DHT22;12318;51.262;7.066;2022-07-29T15:00:56;23.60;97.50
24162;DHT22;12318;51.262;7.066;2022-07-29T15:03:22;23.40;97.60
24162;DHT22;12318;51.262;7.066;2022-07-29T15:05:48;23.50;98.80
24162;DHT22;12318;51.262;7.066;2022-07-29T15:08:14;23.80;98.30
24162;DHT22;12318;51.262;7.066;2022-07-29T15:10:39;23.60;97.80
24162;DHT22;12318;51.262;7.066;2022-07-29T15:13:06;23.50;98.30
24162;DHT22;12318;51.262;7.066;2022-07-29T15:15:31;23.40;98.00
24162;DHT22;12318;51.262;7.066;2022-07-29T15:17:57;23.60;98.10
24162;DHT22;12318;51.262;7.066;2022-07-29T15:20:23;23.60;97.40
24162;DHT22;12318;51.262;7.066;2022-07-29T15:22:51;23.50;98.20
24162;DHT22;12318;51.262;7.066;2022-07-29T15:25:16;23.60;98.60
24162;DHT22;12318;51.262;7.066;2022-07-29T15:27:42;23.90;98.60
24162;DHT22;12318;51.262;7.066;2022-07-29T15:30:09;24.50;98.50
24162;DHT22;12318;51.262;7.066;2022-07-29T15:32:35;24.90;97.70
24162;DHT22;12318;51.262;7.066;2022-07-29T15:35:00;24.90;97.60
24162;DHT22;12318;51.262;7.066;2022-07-29T15:37:26;24.40;96.90
24162;DHT22;12318;51.262;7.066;2022-07-29T15:39:53;23.80;98.60
24162;DHT22;12318;51.262;7.066;2022-07-29T15:42:19;23.70;99.50
24162;DHT22;12318;51.262;7.066;2022-07-29T15:44:45;24.00;99.90
24162;DHT22;12318;51.262;7.066;2022-07-29T15:47:10;24.50;99.60
24162;DHT22;12318;51.262;7.066;2022-07-29T15:49:38;24.60;99.00
24162;DHT22;12318;51.262;7.066;2022-07-29T15:52:06;24.20;99.10
24162;DHT22;12318;51.262;7.066;2022-07-29T15:54:41;24.10;99.40
24162;DHT22;12318;51.262;7.066;2022-07-29T15:57:07;24.30;99.80
24162;DHT22;12318;51.262;7.066;2022-07-29T15:59:33;24.20;99.00
24162;DHT22;12318;51.262;7.066;2022-07-29T16:01:59;24.20;99.80
24162;DHT22;12318;51.262;7.066;2022-07-29T16:04:37;24.40;99.50
24162;DHT22;12318;51.262;7.066;2022-07-29T16:07:03;24.60;99.30
24162;DHT22;12318;51.262;7.066;2022-07-29T16:09:29;24.80;99.30
24162;DHT22;12318;51.262;7.066;2022-07-29T16:11:55;24.70;98.40
24162;DHT22;12318;51.262;7.066;2022-07-29T16:14:21;24.70;97.90
24162;DHT22;12318;51.262;7.066;2022-07-29T16:16:47;24.90;97.50
24162;DHT22;12318;51.262;7.066;2022-07-29T16:19:12;25.00;97.60
24162;DHT22;12318;51.262;7.066;2022-07-29T16:21:39;24.90;97.60
24162;DHT22;12318;51.262;7.066;2022-07-29T16:24:05;24.70;98.80
24162;DHT22;12318;51.262;7.066;2022-07-29T16:26:32;24.50;99.00
24162;DHT22;12318;51.262;7.066;2022-07-29T16:28:58;24.00;99.20
24162;DHT22;12318;51.262;7.066;2022-07-29T16:31:25;24.10;99.10
24162;DHT22;12318;51.262;7.066;2022-07-29T16:33:56;24.10;99.40